Terminal Aerodrome Forecast
Issued by NWS

Home | Current Version | Previous Version | Text Only | Print | Product List | Glossary On
Versions: 1 2 3 4 5 6 7 8 9 10 11 12 13 14 15 16 17 18
000
FTUS46 KEKA 050533
TAFUKI
TAF
KUKI 050533Z 0506/0606 VRB04KT 6SM FU SCT035 SCT120 OVC250
     FM051300 16003KT 6SM FU SCT015 BKN120 OVC250
      TEMPO 0513/0516 BKN015
     FM051900 29006KT 6SM FU SCT035 SCT120 BKN250=

USA.gov is the U.S. government's official web portal to all federal, state and local government web resources and services.